Snake Valley, Nevada Weather observations

Data are for 10 minute period ending at time listed.
 Day   Time   Solar   Ave.   Ave.  Ave.  Vector  Max.   Baro.   Total    
  of    of     Rad.   Air    Rel.  Wind   Wind   Wind  Press.  Precip.   
Year   Day            Temp.  Hum.  Speed  Dir.   Gust                    
2016   (PST)  Kw/m2    F      %     mph   deg.    mph    mb.     in.     
-------------------------------------------------------------------------
 144    3:50   0.00   37.9    70    3.0   202     5.6   837.5    0.00 
 144    4:00   0.00   38.8    67    2.6   190     4.1   837.5    0.00 
 144    4:10   0.00   39.1    66    2.0   178     4.2   837.6    0.00 
 144    4:20   0.00   40.5    64    2.3   172     3.9   837.7    0.00 
 144    4:30   0.01   40.8    64    1.8   184     3.6   837.8    0.00 
 144    4:40   0.02   41.0    65    0.9   196     2.7   837.8    0.00 
 144    4:50   0.03   42.2    63    1.4   164     4.0   837.8    0.00 
 144    5:00   0.06   42.8    62    1.5   166     3.2   838.0    0.00 
 144    5:10   0.10   44.2    62    0.9   159     2.9   838.1    0.00 
 144    5:20   0.13   46.1    58    2.0   162     3.2   838.3    0.00 
 144    5:30   0.16   46.4    59    2.5   184     3.2   838.4    0.00 
 144    5:40   0.19   48.1    55    2.2   158     3.7   838.6    0.00 
 144    5:50   0.15   49.0    51    0.8   143     2.6   838.7    0.00 
 144    6:00   0.19   48.7    54    1.0   140     2.5   838.8    0.00 
 144    6:10   0.28   50.1    53    0.9    98     4.3   838.9    0.00 
 144    6:20   0.31   51.1    52    2.8    21     5.6   838.9    0.00 
 144    6:30   0.34   50.8    52    4.0    20     7.0   838.9    0.00 
 144    6:40   0.36   51.1    54    5.6    42     8.9   839.0    0.00 
 144    6:50   0.41   51.4    53    6.0    46    11.0   839.0    0.00 
 144    7:00   0.44   51.5    54    7.1    42    11.6   839.0    0.00 
 144    7:10   0.47   51.9    53    5.9    52     8.6   839.0    0.00 
 144    7:20   0.51   52.3    52    5.9    44     9.8   838.9    0.00 
 144    7:30   0.54   53.0    49    4.5    40     8.0   838.9    0.00 
 144    7:40   0.57   53.5    48    4.8    34     8.6   838.9    0.00 
 144    7:50   0.60   53.2    47    4.9     7     6.9   838.8    0.00 
 144    8:00   0.63   54.4    47    5.1    30    10.3   838.8    0.00 
 144    8:10   0.67   55.0    44    3.8    39     8.4   838.7    0.00 
 144    8:20   0.69   55.3    42    4.1    52     8.8   838.6    0.00 
 144    8:30   0.72   55.3    42    4.3    78     8.6   838.5    0.00 
 144    8:40   0.75   55.7    40    3.5   342     8.7   838.5    0.00 
 144    8:50   0.78   56.6    39    2.8    27     7.9   838.4    0.00 
 144    9:00   0.81   57.5    40    4.9    55     9.9   838.2    0.00 
 144    9:10   0.83   58.3    37    1.7    34     6.9   838.2    0.00 
 144    9:20   0.86   58.4    36    4.2    82     8.1   838.1    0.00 
 144    9:30   0.89   59.2    32    1.3   300     3.1   838.0    0.00 
 144    9:40   0.96   59.1    35    4.1     7     7.2   837.9    0.00 
 144    9:50   1.04   59.9    32    3.0   172     7.2   837.8    0.00 
 144   10:00   1.02   60.9    31    3.6   173     6.1   837.7    0.00 
 144   10:10   1.00   60.9    31    2.8   157     6.4   837.6    0.00 
 144   10:20   0.95   61.0    31    3.8   113     8.6   837.6    0.00 
 144   10:30   0.89   60.6    29    3.2   227     6.9   837.5    0.00 
 144   10:40   1.07   61.4    30    4.6    77     8.1   837.3    0.00 
 144   10:50   1.14   62.4    29    3.1    71     6.7   837.1    0.00 
 144   11:00   0.47   63.0    27    4.3   164     7.9   836.9    0.00 
 144   11:10   0.43   61.0    30    2.8   111     5.6   836.7    0.00 
 144   11:20   0.82   61.5    27    2.9    23     6.2   836.6    0.00 
 144   11:30   0.66   63.2    26    2.0   329     5.9   836.5    0.00 
 144   11:40   0.95   63.5    26    2.7   191     7.2   836.2    0.00 
 144   11:50   0.97   64.6    24    4.6   332     8.8   836.1    0.00 
 144   12:00   0.52   63.8    23    3.8    62     7.0   835.9    0.00 
 144   12:10   0.35   63.7    21    3.0   108     6.9   835.8    0.00 
 144   12:20   0.43   64.1    20    1.6   308     3.7   835.7    0.00 
 144   12:30   0.34   64.3    22    1.8   325     3.7   835.6    0.00 
 144   12:40   0.31   63.8    24    2.8   350     5.6   835.5    0.00 
 144   12:50   0.37   64.2    23    3.0    23     5.6   835.4    0.00 
 144   13:00   0.46   64.8    22    2.4   351     6.6   835.3    0.00 
 144   13:10   0.92   65.6    21    4.2    18     8.8   835.1    0.00 
 144   13:20   0.63   66.6    18    3.1   353     7.1   834.9    0.00 
 144   13:30   0.80   67.4    19    4.3    95    15.0   834.7    0.00 
 144   13:40   0.61   66.9    18    4.6    93    12.1   834.7    0.00 
 144   13:50   0.81   67.7    19    4.3    79    12.1   834.6    0.00 
 144   14:00   0.60   68.1    18    2.4    83     5.3   834.5    0.00 
 144   14:10   0.44   67.2    17    2.7   119     5.2   834.5    0.00 
 144   14:20   0.58   67.7    19    7.8   160    14.2   834.3    0.00 
 144   14:30   0.42   67.4    18    8.4   154    14.4   834.3    0.00 
 144   14:40   0.60   67.5    17    5.5   202    11.2   834.3    0.00 
 144   14:50   0.73   69.5    17    6.7   188    16.4   834.1    0.00 
 144   15:00   0.41   68.5    16    6.8   184    12.6   834.0    0.00 
 144   15:10   0.39   67.5    19    8.1   146    14.2   834.0    0.00 
 144   15:20   0.41   67.8    17   11.5   200    16.1   833.9    0.00 
 144   15:30   0.34   65.9    21    6.3   244    16.5   833.9    0.00 
 144   15:40   0.28   63.3    28    6.3   259    11.4   833.9    0.00 
 144   15:50   0.25   65.0    22    4.0   210    20.2   833.9    0.00 
 144   16:00   0.29   65.2    22    9.5   218    20.5   833.9    0.00 
 144   16:10   0.22   63.9    23    7.7   243    13.3   833.8    0.00 
 144   16:20   0.20   64.8    24    2.7   263     4.7   833.8    0.00 
 144   16:30   0.26   64.0    27    3.8   291     8.7   833.7    0.00 
 144   16:40   0.23   64.8    26    3.0   264     4.7   833.7    0.00 
 144   16:50   0.22   64.6    30    3.4   267     4.7   833.6    0.00 
 144   17:00   0.16   65.6    21    6.8   197    11.9   833.5    0.00 
 144   17:10   0.15   66.3    18    8.4   179    16.7   833.4    0.00 
 144   17:20   0.15   66.4    19    7.6   176    11.4   833.3    0.00 
 144   17:30   0.12   66.0    20    7.0   178     9.2   833.3    0.00 
 144   17:40   0.12   65.9    20    6.1   168     9.0   833.3    0.00 
 144   17:50   0.09   65.6    22    3.7   165     6.0   833.3    0.00 
 144   18:00   0.07   65.0    22    5.0   182    11.1   833.3    0.00 
 144   18:10   0.09   64.7    20    7.6   182    12.6   833.2    0.00 
 144   18:20   0.07   64.7    20    7.1   178    10.4   833.3    0.00 
 144   18:30   0.02   62.3    26    4.0   199     6.8   833.4    0.00 
 144   18:40   0.02   59.5    30    3.5   214     4.7   833.4    0.00 
 144   18:50   0.01   55.8    36    4.7   239     7.2   833.5    0.00 
 144   19:00   0.00   55.5    34    4.5   225     5.8   833.6    0.00 
 144   19:10   0.00   51.8    46    5.0   228     8.3   833.7    0.00 
 144   19:20   0.00   49.9    48    6.9   244     9.9   833.7    0.00 
 144   19:30   0.00   49.7    48    5.4   258     8.0   833.8    0.00 
 144   19:40   0.00   47.9    52    4.5   264     6.3   833.9    0.00 
 144   19:50   0.00   48.5    48    4.1   257     5.6   834.0    0.00 
 144   20:00   0.00   45.8    55    2.3   266     4.7   834.2    0.00 
 144   20:10   0.00   44.7    54    1.6   234     3.7   834.2    0.00 
 144   20:20   0.00   45.0    50    2.4   247     4.9   834.2    0.00 
 144   20:30   0.00   44.5    52    0.8   305     3.7   834.3    0.00 
 144   20:40   0.00   42.8    59    3.1    65     7.6   834.5    0.00 
 144   20:50   0.00   40.8    62    3.6    62     6.1   834.6    0.00 
 144   21:00   0.00   41.8    57    5.7    30     6.6   834.6    0.00 
 144   21:10   0.00   44.0    49    2.2    44     4.9   834.6    0.00 
 144   21:20   0.00   45.4    45    2.0    37     3.9   834.5    0.00 
 144   21:30   0.00   46.8    43    3.0    73     4.7   834.5    0.00 
 144   21:40   0.00   45.7    46    4.1    54     6.1   834.5    0.00 
 144   21:50   0.00   47.2    44    4.7    57     6.4   834.5    0.00 
 144   22:00   0.00   46.6    45    5.5    78     7.2   834.5    0.00 
 144   22:10   0.00   47.4    41    4.1    92     5.8   834.5    0.00 
 144   22:20   0.00   45.5    49    2.8   234     6.1   834.4    0.00 
 144   22:30   0.00   44.0    51    2.5   277     5.8   834.3    0.00 
 144   22:40   0.00   41.7    57    2.9   253     5.3   834.4    0.00 
 144   22:50   0.00   41.5    60    1.3   160     2.6   834.4    0.00 
 144   23:00   0.00   39.2    62    2.1   247     4.2   834.5    0.00 
 144   23:10   0.00   39.0    64    1.9   263     4.7   834.4    0.00 
 144   23:20   0.00   37.2    68    2.5   244     5.4   834.5    0.00 
 144   23:30   0.00   36.4    71    3.0   273     3.9   834.4    0.00 
 144   23:40   0.00   37.8    63    4.5   244     5.6   834.4    0.00 
 144   23:50   0.00   37.0    67    3.6   223     4.4   834.4    0.00 
 145    0:00   0.00   37.3    70    2.0   217     3.4   834.5    0.00 
 145    0:10   0.00   39.1    61    2.7   193     3.9   834.5    0.00 
 145    0:20   0.00   41.9    57    1.7   219     3.6   834.5    0.00 
 145    0:30   0.00   43.6    54    2.6   226     4.1   834.5    0.00 
 145    0:40   0.00   46.1    48    4.5   205     5.8   834.6    0.00 
 145    0:50   0.00   47.3    47    3.4   206     6.2   834.7    0.00 
 145    1:00   0.00   46.6    53    5.7   248     7.5   834.9    0.00 
 145    1:10   0.00   50.0    45    2.7   242     5.5   834.9    0.00 
 145    1:20   0.00   50.4    44    0.6   268     1.8   834.7    0.00 
 145    1:30   0.00   51.2    41    1.0   136     4.7   834.7    0.00 
 145    1:40   0.00   52.1    41    1.6    43     4.3   834.7    0.00 
 145    1:50   0.00   51.7    43    1.8   163     3.4   834.8    0.00 
 145    2:00   0.00   50.7    42    1.3   196     2.9   834.8    0.00 
 145    2:10   0.00   49.2    47    0.9   142     2.9   835.0    0.00 
 145    2:20   0.00   47.0    55    2.1   250     3.3   835.0    0.00 
 145    2:30   0.00   46.0    55    2.9   338     6.1   835.0    0.00 
 145    2:40   0.00   46.3    53    1.7   246     3.6   835.0    0.00 
 145    2:50   0.00   45.6    58    1.9   268     3.7   835.1    0.00 
 145    3:00   0.00   45.2    55    2.0   127     3.1   835.2    0.00 
 145    3:10   0.00   47.2    49    2.7    30     6.1   835.1    0.00 
 145    3:20   0.00   44.8    62    5.2    31     6.9   834.9    0.00 
 145    3:30   0.00   45.1    58    4.9   204    11.6   835.1    0.00 
 145    3:40   0.00   47.5    52    4.3   242     5.8   835.1    0.00 

Return to Snake Valley graphs page.


Western Regional Climate Center,wrcc@dri.edu